Time;durP1;ratioP1;P1;durP2;ratioP2;P2;SDS_P1;SDS_P2;PMS_P1;PMS_P2;Temp;Humidity;BMP_temperature;BMP_pressure;BME280_temperature;BME280_humidity;BME280_pressure;Samples;Min_cycle;Max_cycle;Signal;HPM_P1;HPM_P2
2022/06/18 00:01:38;;;;;;;17.95;3.03;;;24.50;70.10;;;;;;5007818;28;20281;-69
2022/06/18 00:04:15;;;;;;;15.23;2.55;;;24.50;70.50;;;;;;4998547;28;20569;-68
2022/06/18 00:06:57;;;;;;;9.90;2.22;;;24.50;70.40;;;;;;5014669;28;20179;-68
2022/06/18 00:09:41;;;;;;;8.38;2.05;;;24.50;70.10;;;;;;5014404;28;20219;-68
2022/06/18 00:15:38;;;;;;;8.55;2.10;;;24.50;70.20;;;;;;5013298;28;20231;-69
2022/06/18 00:18:12;;;;;;;7.72;1.92;;;24.50;70.40;;;;;;5029732;28;20294;-69
2022/06/18 00:20:40;;;;;;;5.88;1.80;;;24.40;70.50;;;;;;5012745;28;20207;-68
2022/06/18 00:23:13;;;;;;;7.07;2.08;;;24.40;70.30;;;;;;4996772;28;20172;-69
2022/06/18 00:25:42;;;;;;;7.43;1.77;;;24.50;70.80;;;;;;5013084;28;20165;-68
2022/06/18 00:28:22;;;;;;;6.13;1.70;;;24.40;70.20;;;;;;5017662;28;20184;-69
2022/06/18 00:30:50;;;;;;;7.10;1.98;;;24.40;70.50;;;;;;5007349;28;20219;-68
2022/06/18 00:33:17;;;;;;;6.60;1.80;;;24.50;70.80;;;;;;4996168;28;20284;-68
2022/06/18 00:35:45;;;;;;;5.20;1.73;;;24.50;70.50;;;;;;4973920;28;20217;-69
2022/06/18 00:38:34;;;;;;;8.02;2.33;;;24.50;70.40;;;;;;4973441;28;20185;-69
2022/06/18 00:41:01;;;;;;;6.03;2.08;;;24.40;70.30;;;;;;4957664;28;20241;-69
2022/06/18 00:44:01;;;;;;;6.97;1.67;;;24.40;70.80;;;;;;4973815;28;20277;-69
2022/06/18 00:47:16;;;;;;;6.72;1.85;;;24.50;71.10;;;;;;4973502;28;20200;-68
2022/06/18 00:50:25;;;;;;;7.95;1.73;;;24.40;70.40;;;;;;4957576;28;20218;-68
2022/06/18 00:53:00;;;;;;;38.80;4.22;;;24.40;70.50;;;;;;4957130;28;20216;-69
2022/06/18 00:55:34;;;;;;;8.85;2.65;;;24.50;71.20;;;;;;4973747;28;20213;-69
2022/06/18 00:58:20;;;;;;;16.52;2.33;;;24.50;70.70;;;;;;4974838;28;20169;-70
2022/06/18 01:00:49;;;;;;;6.97;1.77;;;24.50;70.30;;;;;;4966462;28;20270;-69
2022/06/18 01:03:30;;;;;;;7.22;1.98;;;24.50;69.90;;;;;;5004360;28;20238;-69
2022/06/18 01:06:16;;;;;;;7.68;1.90;;;24.50;70.60;;;;;;5029025;28;20199;-69
2022/06/18 01:08:45;;;;;;;5.72;1.70;;;24.50;70.60;;;;;;4995981;28;20244;-69
2022/06/18 01:11:25;;;;;;;4.20;1.58;;;24.40;70.40;;;;;;4995620;28;20192;-70
2022/06/18 01:13:53;;;;;;;7.45;1.80;;;24.50;70.80;;;;;;5028800;28;20172;-69
2022/06/18 01:16:22;;;;;;;6.45;1.60;;;24.50;70.90;;;;;;5012299;28;20687;-70
2022/06/18 01:18:50;;;;;;;5.45;1.90;;;24.50;71.00;;;;;;4996122;28;20249;-69
2022/06/18 01:21:26;;;;;;;7.55;1.83;;;24.40;71.00;;;;;;4995224;28;20222;-69
2022/06/18 01:24:16;;;;;;;7.15;1.88;;;24.40;71.10;;;;;;5011882;28;20271;-68
2022/06/18 01:26:47;;;;;;;6.10;1.85;;;24.50;71.50;;;;;;5011955;28;20202;-68
2022/06/18 01:29:14;;;;;;;5.15;1.77;;;24.50;71.60;;;;;;5011949;28;20208;-69
2022/06/18 01:31:41;;;;;;;12.77;1.80;;;24.50;71.80;;;;;;4987612;28;20226;-68
2022/06/18 01:34:08;;;;;;;5.88;2.03;;;24.50;71.80;;;;;;5003870;28;20195;-69
2022/06/18 01:36:38;;;;;;;9.55;2.05;;;24.50;71.90;;;;;;4996117;28;20212;-69
2022/06/18 01:39:13;;;;;;;6.78;1.73;;;24.50;71.80;;;;;;5028058;28;20211;-69
2022/06/18 01:41:51;;;;;;;5.50;1.60;;;24.50;71.80;;;;;;5011255;28;20278;-68
2022/06/18 01:44:55;;;;;;;7.40;2.00;;;24.50;72.10;;;;;;4958199;28;20170;-69
2022/06/18 01:47:42;;;;;;;3.67;1.63;;;24.40;71.50;;;;;;4972636;28;20200;-69
2022/06/18 01:50:36;;;;;;;5.78;1.58;;;24.40;71.60;;;;;;4956633;28;20206;-68
2022/06/18 01:53:31;;;;;;;5.45;1.67;;;24.40;71.70;;;;;;4972475;28;20170;-69
2022/06/18 01:56:15;;;;;;;13.95;2.00;;;24.40;71.70;;;;;;4972349;28;20209;-69
2022/06/18 01:58:49;;;;;;;4.43;1.50;;;24.40;71.70;;;;;;4972473;28;20177;-69
2022/06/18 02:01:28;;;;;;;3.45;1.42;;;24.40;71.50;;;;;;4986182;28;20184;-69
2022/06/18 02:03:59;;;;;;;4.90;1.55;;;24.40;71.40;;;;;;4987218;28;20204;-69
2022/06/18 02:06:28;;;;;;;4.35;1.70;;;24.40;71.50;;;;;;5011583;28;20172;-69
2022/06/18 02:08:54;;;;;;;3.63;1.98;;;24.40;71.80;;;;;;4994817;28;20206;-69
2022/06/18 02:11:22;;;;;;;3.25;1.80;;;24.40;71.70;;;;;;5010964;28;20203;-69
2022/06/18 02:13:57;;;;;;;1.70;1.45;;;24.40;71.70;;;;;;5011774;28;20192;-69
2022/06/18 02:16:30;;;;;;;3.28;1.50;;;24.40;71.80;;;;;;4995496;28;20672;-69
2022/06/18 02:18:59;;;;;;;4.32;1.58;;;24.40;71.70;;;;;;4994890;28;20200;-69
2022/06/18 02:21:25;;;;;;;4.05;1.70;;;24.40;71.70;;;;;;5011050;28;20718;-69
2022/06/18 02:23:54;;;;;;;2.03;1.60;;;24.40;71.80;;;;;;5027450;28;20204;-69
2022/06/18 02:26:27;;;;;;;4.55;1.50;;;24.40;71.80;;;;;;5011231;28;20296;-69
2022/06/18 02:28:55;;;;;;;3.63;1.38;;;24.40;72.00;;;;;;5011143;28;20208;-70
2022/06/18 02:31:28;;;;;;;4.13;1.75;;;24.40;71.70;;;;;;5008689;28;20191;-69
2022/06/18 02:34:03;;;;;;;3.55;1.50;;;24.40;71.70;;;;;;5011135;28;20267;-68
2022/06/18 02:36:34;;;;;;;4.57;1.63;;;24.40;71.70;;;;;;5011201;28;20279;-69
2022/06/18 02:39:08;;;;;;;5.70;1.60;;;24.40;71.50;;;;;;4994913;28;20207;-68
2022/06/18 02:41:43;;;;;;;3.55;1.80;;;24.40;71.60;;;;;;5011794;28;20188;-68
2022/06/18 02:44:11;;;;;;;2.20;1.30;;;24.40;71.70;;;;;;4995542;28;20592;-68
2022/06/18 02:46:37;;;;;;;3.58;1.30;;;24.40;71.70;;;;;;5000344;28;20197;-68
2022/06/18 02:49:07;;;;;;;2.88;1.70;;;24.40;71.60;;;;;;4995156;28;20271;-68
2022/06/18 02:51:36;;;;;;;1.58;1.45;;;24.40;71.70;;;;;;4994638;28;20177;-67
2022/06/18 02:54:04;;;;;;;2.50;1.42;;;24.40;71.60;;;;;;4976203;28;20189;-68
2022/06/18 02:56:31;;;;;;;5.63;1.48;;;24.40;71.70;;;;;;4995100;28;20216;-68
2022/06/18 02:58:57;;;;;;;2.65;1.33;;;24.50;71.80;;;;;;5003553;28;20286;-67
2022/06/18 03:01:25;;;;;;;3.05;1.45;;;24.40;71.70;;;;;;5011892;28;20274;-68
2022/06/18 03:03:59;;;;;;;3.40;1.30;;;24.40;71.70;;;;;;5022875;28;20226;-68
2022/06/18 03:06:31;;;;;;;2.78;1.50;;;24.40;71.70;;;;;;4998640;28;20647;-68
2022/06/18 03:08:57;;;;;;;2.50;1.48;;;24.40;71.70;;;;;;5014238;28;20211;-68
2022/06/18 03:14:14;;;;;;;3.03;1.50;;;24.40;70.90;;;;;;5014486;28;20275;-68
2022/06/18 03:16:42;;;;;;;3.42;1.30;;;24.40;71.70;;;;;;5014048;28;20675;-67
2022/06/18 03:19:30;;;;;;;3.95;1.30;;;24.40;71.70;;;;;;5014589;28;20238;-68
2022/06/18 03:22:11;;;;;;;2.95;1.63;;;24.40;71.70;;;;;;4997786;28;20210;-67
2022/06/18 03:24:37;;;;;;;6.25;1.60;;;24.40;71.70;;;;;;5014110;28;20207;-68
2022/06/18 03:27:04;;;;;;;1.88;1.33;;;24.40;72.00;;;;;;5030419;28;20191;-68
2022/06/18 03:29:30;;;;;;;7.45;1.52;;;24.40;72.00;;;;;;4998360;28;20204;-68
2022/06/18 03:31:56;;;;;;;4.75;1.60;;;24.40;72.00;;;;;;5013150;28;20213;-68
2022/06/18 03:34:25;;;;;;;3.45;1.50;;;24.40;72.00;;;;;;5012510;28;20263;-68
2022/06/18 03:36:52;;;;;;;1.65;1.55;;;24.40;71.70;;;;;;4975389;28;20221;-70
2022/06/18 03:39:18;;;;;;;6.95;1.88;;;24.40;71.70;;;;;;4959106;28;20206;-70
2022/06/18 03:41:44;;;;;;;4.00;1.50;;;24.40;71.70;;;;;;4942318;28;20244;-69
2022/06/18 03:44:11;;;;;;;2.30;1.40;;;24.40;71.70;;;;;;4991092;28;20189;-70
2022/06/18 03:46:39;;;;;;;4.97;1.80;;;24.30;71.80;;;;;;4958579;28;20197;-69
2022/06/18 03:49:27;;;;;;;4.95;2.05;;;24.30;72.00;;;;;;4959333;28;20228;-68
2022/06/18 03:51:59;;;;;;;9.55;2.03;;;24.30;72.60;;;;;;4974536;28;20201;-70
2022/06/18 03:54:25;;;;;;;3.30;1.58;;;24.40;72.20;;;;;;4958488;28;20276;-70
2022/06/18 03:56:53;;;;;;;2.67;1.73;;;24.30;72.20;;;;;;4974148;28;20602;-70
2022/06/18 03:59:21;;;;;;;5.63;1.67;;;24.40;72.20;;;;;;4974707;28;20198;-70
2022/06/18 04:01:48;;;;;;;5.40;1.60;;;24.30;72.40;;;;;;4977276;28;20246;-68
2022/06/18 04:04:15;;;;;;;9.13;1.88;;;24.30;72.50;;;;;;4993817;28;20180;-68
2022/06/18 04:06:46;;;;;;;7.78;1.88;;;24.30;72.70;;;;;;4993809;28;20189;-69
2022/06/18 04:09:43;;;;;;;9.40;2.33;;;24.40;72.60;;;;;;4993625;28;20239;-69
2022/06/18 04:12:14;;;;;;;9.65;2.03;;;24.40;72.10;;;;;;4994076;28;20181;-69
2022/06/18 04:15:06;;;;;;;5.32;1.90;;;24.30;72.10;;;;;;4993795;28;20215;-69
2022/06/18 04:17:52;;;;;;;7.90;1.60;;;24.30;72.10;;;;;;4993633;28;20193;-69
2022/06/18 04:20:24;;;;;;;7.22;2.05;;;24.30;72.30;;;;;;4993643;28;20231;-69
2022/06/18 04:22:50;;;;;;;5.95;1.70;;;24.30;72.10;;;;;;4993064;28;20181;-69
2022/06/18 04:25:18;;;;;;;3.95;1.77;;;24.30;72.30;;;;;;4993244;28;20188;-68
2022/06/18 04:27:44;;;;;;;4.72;1.67;;;24.30;72.30;;;;;;4993404;28;20221;-68
2022/06/18 04:30:15;;;;;;;5.93;1.52;;;24.30;72.20;;;;;;4993342;28;20224;-69
2022/06/18 04:32:53;;;;;;;8.50;2.05;;;24.30;72.30;;;;;;5011444;28;20215;-68
2022/06/18 04:35:20;;;;;;;6.75;1.90;;;24.30;71.90;;;;;;4993287;28;20278;-68
2022/06/18 04:38:07;;;;;;;5.00;1.77;;;24.30;72.00;;;;;;4993426;28;20173;-68
2022/06/18 04:40:54;;;;;;;3.35;1.40;;;24.30;72.40;;;;;;4992590;28;20188;-68
2022/06/18 04:43:25;;;;;;;3.70;1.77;;;24.40;72.40;;;;;;4993570;28;20219;-68
2022/06/18 04:45:56;;;;;;;4.38;1.50;;;24.30;72.10;;;;;;4993368;28;20169;-69
2022/06/18 04:48:25;;;;;;;3.97;1.70;;;24.30;71.90;;;;;;4993247;28;20184;-69
2022/06/18 04:50:52;;;;;;;1.73;1.23;;;24.30;72.30;;;;;;5009303;28;20199;-69
2022/06/18 04:53:18;;;;;;;11.68;2.03;;;24.30;72.20;;;;;;4993081;28;20227;-69
2022/06/18 04:55:47;;;;;;;2.40;1.58;;;24.30;72.40;;;;;;4992776;28;20295;-69
2022/06/18 04:58:12;;;;;;;3.55;1.40;;;24.30;72.40;;;;;;4993333;28;20272;-69
2022/06/18 05:00:44;;;;;;;6.00;1.80;;;24.30;72.30;;;;;;4993883;28;20230;-68
2022/06/18 05:03:18;;;;;;;5.00;1.70;;;24.30;72.30;;;;;;4996005;28;20668;-68
2022/06/18 05:06:03;;;;;;;5.43;1.90;;;24.30;72.20;;;;;;5012336;28;20687;-70
2022/06/18 05:08:49;;;;;;;3.00;1.40;;;24.30;72.40;;;;;;4973520;28;20249;-70
2022/06/18 05:11:25;;;;;;;13.18;2.10;;;24.30;72.20;;;;;;4989235;28;20187;-69
2022/06/18 05:14:17;;;;;;;9.20;1.95;;;24.40;72.20;;;;;;4973329;28;20268;-69
2022/06/18 05:16:51;;;;;;;12.50;2.03;;;24.40;72.50;;;;;;4989298;28;20748;-69
2022/06/18 05:19:28;;;;;;;12.88;2.45;;;24.40;72.00;;;;;;4989357;28;20230;-69
2022/06/18 05:21:58;;;;;;;10.38;2.45;;;24.40;72.80;;;;;;4988987;28;20181;-68
2022/06/18 05:24:24;;;;;;;14.65;2.17;;;24.40;72.80;;;;;;4989568;28;20177;-68
2022/06/18 05:26:55;;;;;;;13.20;2.50;;;24.30;72.60;;;;;;4972974;28;20197;-68
2022/06/18 05:29:22;;;;;;;11.63;1.95;;;24.30;72.80;;;;;;4989198;28;20213;-69
2022/06/18 05:31:48;;;;;;;11.55;2.85;;;24.30;72.90;;;;;;4983845;28;20203;-68
2022/06/18 05:34:15;;;;;;;13.10;2.70;;;24.40;72.80;;;;;;5005401;28;20194;-68
2022/06/18 05:36:41;;;;;;;15.52;2.92;;;24.30;72.70;;;;;;5028239;28;20211;-68
2022/06/18 05:39:13;;;;;;;13.07;3.10;;;24.30;72.80;;;;;;4995427;28;20200;-68
2022/06/18 05:41:39;;;;;;;6.78;2.78;;;24.30;72.90;;;;;;5011612;28;20195;-68
2022/06/18 05:44:06;;;;;;;9.68;2.20;;;24.30;72.90;;;;;;4995401;28;20184;-69
2022/06/18 05:46:32;;;;;;;14.23;2.70;;;24.30;72.90;;;;;;5011559;28;20242;-69
2022/06/18 05:48:58;;;;;;;38.00;4.20;;;24.30;73.00;;;;;;5011878;28;20226;-69
2022/06/18 05:51:25;;;;;;;13.88;2.53;;;24.40;72.60;;;;;;5027537;28;20215;-69
2022/06/18 05:53:51;;;;;;;23.02;2.78;;;24.40;73.30;;;;;;5028004;28;20180;-69
2022/06/18 05:56:36;;;;;;;15.90;2.55;;;24.30;73.30;;;;;;5012431;28;20211;-69
2022/06/18 05:59:31;;;;;;;14.15;2.95;;;24.30;73.70;;;;;;4993273;28;20200;-70
2022/06/18 06:01:57;;;;;;;18.00;3.70;;;24.30;74.10;;;;;;5014929;28;20186;-70
2022/06/18 06:04:27;;;;;;;18.35;2.95;;;24.30;73.70;;;;;;5023375;28;20192;-70
2022/06/18 06:06:55;;;;;;;13.63;2.60;;;24.30;73.80;;;;;;5011610;28;20267;-70
2022/06/18 06:12:12;;;;;;;13.32;2.38;;;24.30;74.00;;;;;;4994387;28;20177;-68
2022/06/18 06:14:41;;;;;;;20.17;3.00;;;24.30;74.00;;;;;;4991620;28;20188;-70
2022/06/18 06:17:21;;;;;;;17.38;2.67;;;24.30;74.30;;;;;;4991383;28;20180;-70
2022/06/18 06:19:48;;;;;;;14.80;2.63;;;24.30;74.60;;;;;;4996163;28;20204;-70
2022/06/18 06:22:13;;;;;;;10.25;2.53;;;24.30;74.70;;;;;;4997629;28;20203;-69
2022/06/18 06:24:39;;;;;;;12.27;2.08;;;24.30;75.00;;;;;;4998092;28;20656;-69
2022/06/18 06:27:05;;;;;;;13.05;3.15;;;24.30;75.10;;;;;;4998367;28;20218;-69
2022/06/18 06:29:32;;;;;;;8.73;2.20;;;24.30;75.10;;;;;;4998104;28;20211;-70
2022/06/18 06:31:58;;;;;;;14.80;2.65;;;24.30;75.10;;;;;;5006986;28;20233;-70
2022/06/18 06:34:24;;;;;;;12.05;2.63;;;24.30;75.30;;;;;;4998119;28;20192;-70
2022/06/18 06:36:51;;;;;;;7.95;2.78;;;24.30;75.70;;;;;;5014348;28;20209;-70
2022/06/18 06:39:17;;;;;;;9.88;2.45;;;24.30;75.80;;;;;;4998095;28;20208;-69
2022/06/18 06:41:44;;;;;;;7.20;2.63;;;24.30;75.30;;;;;;4997530;28;20187;-70
2022/06/18 06:44:12;;;;;;;9.48;2.13;;;24.30;74.90;;;;;;5014385;28;20185;-69
2022/06/18 06:46:38;;;;;;;6.90;2.15;;;24.30;75.00;;;;;;4994343;28;20246;-70
2022/06/18 06:49:04;;;;;;;8.57;2.25;;;24.30;75.90;;;;;;4998221;28;20625;-70
2022/06/18 06:51:34;;;;;;;11.40;2.30;;;24.30;75.20;;;;;;4997660;28;20199;-68
2022/06/18 06:54:00;;;;;;;14.32;2.50;;;24.30;75.40;;;;;;4979222;28;20177;-69
2022/06/18 06:59:10;;;;;;;7.45;2.00;;;24.40;76.10;;;;;;4998084;28;20266;-70
2022/06/18 07:01:37;;;;;;;7.82;2.15;;;24.30;76.30;;;;;;4991735;28;20596;-69
2022/06/18 07:04:07;;;;;;;10.45;2.38;;;24.30;76.80;;;;;;5018960;28;20185;-68
2022/06/18 07:06:35;;;;;;;6.05;2.05;;;24.40;76.90;;;;;;4978393;28;20181;-69
2022/06/18 07:09:07;;;;;;;9.00;2.13;;;24.40;77.00;;;;;;4978521;28;20213;-69
2022/06/18 07:11:35;;;;;;;9.80;2.13;;;24.40;77.50;;;;;;4962046;28;20290;-70
2022/06/18 07:14:01;;;;;;;11.13;2.13;;;24.40;77.20;;;;;;4978501;28;20193;-70
2022/06/18 07:16:27;;;;;;;9.32;2.33;;;24.40;77.50;;;;;;4961862;28;20272;-69
2022/06/18 07:18:53;;;;;;;6.88;2.00;;;24.40;77.70;;;;;;4979526;28;20284;-68
2022/06/18 07:21:21;;;;;;;9.57;2.22;;;24.40;77.00;;;;;;4962022;28;20284;-68
2022/06/18 07:23:48;;;;;;;6.68;2.25;;;24.40;77.20;;;;;;4978583;28;20189;-69
2022/06/18 07:26:20;;;;;;;5.30;1.83;;;24.40;77.00;;;;;;4977949;28;20190;-69
2022/06/18 07:28:46;;;;;;;8.15;1.85;;;24.40;76.80;;;;;;4962040;28;20182;-68
2022/06/18 07:31:23;;;;;;;7.53;2.28;;;24.40;76.50;;;;;;4980937;28;20201;-69
2022/06/18 07:33:49;;;;;;;7.22;2.20;;;24.40;76.30;;;;;;5004213;28;20208;-69
2022/06/18 07:36:15;;;;;;;10.10;2.00;;;24.40;76.20;;;;;;5014061;28;20246;-70
2022/06/18 07:38:40;;;;;;;9.63;2.10;;;24.40;76.00;;;;;;4997536;28;20215;-70
2022/06/18 07:41:06;;;;;;;11.93;2.13;;;24.40;76.00;;;;;;5030664;28;20184;-70
2022/06/18 07:43:41;;;;;;;7.07;1.77;;;24.50;75.80;;;;;;4997383;28;20180;-69
2022/06/18 07:46:10;;;;;;;6.97;2.10;;;24.40;75.80;;;;;;5013692;28;20179;-70
2022/06/18 07:48:39;;;;;;;3.22;1.52;;;24.50;76.40;;;;;;5013859;28;20188;-69
2022/06/18 07:51:06;;;;;;;3.65;1.88;;;24.50;76.20;;;;;;5013819;28;20184;-70
2022/06/18 07:53:33;;;;;;;4.15;1.98;;;24.50;76.30;;;;;;5013467;28;20230;-70
2022/06/18 07:56:00;;;;;;;3.97;1.80;;;24.50;76.30;;;;;;5013385;28;20219;-70
2022/06/18 07:58:27;;;;;;;5.03;2.00;;;24.50;76.10;;;;;;5014750;28;20250;-70
2022/06/18 08:00:54;;;;;;;6.97;1.75;;;24.50;75.90;;;;;;5003699;28;20201;-70
2022/06/18 08:03:22;;;;;;;8.27;1.90;;;24.50;75.90;;;;;;5002634;28;20656;-70
2022/06/18 08:05:48;;;;;;;5.40;1.80;;;24.50;75.90;;;;;;5011841;28;20184;-70
2022/06/18 08:08:16;;;;;;;3.42;1.67;;;24.50;75.80;;;;;;5029916;28;20192;-70
2022/06/18 08:10:47;;;;;;;6.88;2.10;;;24.50;76.30;;;;;;5014543;28;20226;-70
2022/06/18 08:13:13;;;;;;;6.18;2.13;;;24.50;76.40;;;;;;5013034;28;20242;-69
2022/06/18 08:15:38;;;;;;;5.05;2.45;;;24.50;75.00;;;;;;4997068;28;20208;-69
2022/06/18 08:18:05;;;;;;;7.88;2.28;;;24.50;75.60;;;;;;4996725;28;20227;-69
2022/06/18 08:20:31;;;;;;;5.32;1.88;;;24.50;75.40;;;;;;5014466;28;20211;-69
2022/06/18 08:22:59;;;;;;;4.75;2.00;;;24.50;75.10;;;;;;5013988;28;20176;-69
2022/06/18 08:25:30;;;;;;;6.78;1.95;;;24.60;74.90;;;;;;4996758;28;20184;-70
2022/06/18 08:28:00;;;;;;;6.90;1.90;;;24.60;74.60;;;;;;5013315;28;20186;-69
2022/06/18 08:30:26;;;;;;;8.88;2.03;;;24.60;74.70;;;;;;5014196;28;20208;-69
2022/06/18 08:32:52;;;;;;;6.65;2.20;;;24.60;75.00;;;;;;5004024;28;20192;-69
2022/06/18 08:35:18;;;;;;;6.43;1.77;;;24.60;75.60;;;;;;5012241;28;20216;-69
2022/06/18 08:37:45;;;;;;;7.65;1.88;;;24.60;75.10;;;;;;4975382;28;20181;-69
2022/06/18 08:40:48;;;;;;;20.27;2.72;;;24.60;75.40;;;;;;4974889;28;20210;-69
2022/06/18 08:43:46;;;;;;;6.95;1.90;;;24.70;75.60;;;;;;4974577;28;20174;-70
2022/06/18 08:46:45;;;;;;;10.38;2.30;;;24.70;74.80;;;;;;4974805;28;20201;-70
2022/06/18 08:49:29;;;;;;;3.55;1.92;;;24.70;72.60;;;;;;4974886;28;20209;-70
2022/06/18 08:52:39;;;;;;;5.90;1.75;;;24.70;70.00;;;;;;4973220;28;20668;-70
2022/06/18 08:55:35;;;;;;;8.52;2.72;;;24.70;71.10;;;;;;4974559;28;20205;-71
2022/06/18 08:58:31;;;;;;;5.20;2.55;;;24.70;70.00;;;;;;4957416;28;20181;-70
2022/06/18 09:01:27;;;;;;;4.70;2.13;;;24.60;70.40;;;;;;4973815;28;20190;-70
2022/06/18 09:04:25;;;;;;;7.65;2.17;;;24.50;69.80;;;;;;5003078;28;20649;-69
2022/06/18 09:07:24;;;;;;;3.47;1.90;;;24.60;70.30;;;;;;5012318;28;20235;-67
2022/06/18 09:10:17;;;;;;;3.50;2.40;;;24.70;70.00;;;;;;5013420;28;20235;-67
2022/06/18 09:12:56;;;;;;;6.43;1.70;;;24.70;70.50;;;;;;4995527;28;20203;-67
2022/06/18 09:15:34;;;;;;;3.92;1.77;;;24.70;71.70;;;;;;5013354;28;20338;-68
2022/06/18 09:18:44;;;;;;;4.13;2.10;;;24.70;72.20;;;;;;5028514;28;20184;-68
2022/06/18 09:21:22;;;;;;;5.28;2.00;;;24.70;72.30;;;;;;5002807;28;20199;-67
2022/06/18 09:23:59;;;;;;;2.53;1.83;;;24.70;72.00;;;;;;5012127;28;20176;-68
2022/06/18 09:26:50;;;;;;;2.65;1.90;;;24.80;73.00;;;;;;5011959;28;20640;-68
2022/06/18 09:29:22;;;;;;;3.47;1.90;;;24.80;73.80;;;;;;5013109;28;20204;-69
2022/06/18 09:32:09;;;;;;;3.53;2.33;;;24.80;73.00;;;;;;5001441;28;20641;-69
2022/06/18 09:34:57;;;;;;;3.45;1.67;;;24.80;74.00;;;;;;5005331;28;20205;-69
2022/06/18 09:37:50;;;;;;;3.17;1.80;;;24.80;73.40;;;;;;4972742;28;20185;-69
2022/06/18 09:40:34;;;;;;;3.63;1.83;;;24.80;72.40;;;;;;4973918;28;20213;-68
2022/06/18 09:43:38;;;;;;;2.22;1.75;;;24.80;72.10;;;;;;4983396;28;20180;-69
2022/06/18 09:46:15;;;;;;;4.43;2.00;;;24.70;72.30;;;;;;4992325;28;20180;-70
2022/06/18 09:48:42;;;;;;;1.80;1.70;;;24.70;72.60;;;;;;4992345;28;20181;-68
2022/06/18 09:51:33;;;;;;;3.40;1.85;;;24.70;72.00;;;;;;4976081;28;20177;-69
2022/06/18 09:54:07;;;;;;;1.63;1.52;;;24.70;72.00;;;;;;4975383;28;20169;-68
2022/06/18 09:56:43;;;;;;;3.03;1.90;;;24.70;71.30;;;;;;4975634;28;20287;-70
2022/06/18 09:59:19;;;;;;;2.75;1.70;;;24.70;71.00;;;;;;4992330;28;20200;-69
2022/06/18 10:01:49;;;;;;;3.90;1.63;;;24.70;70.50;;;;;;4992695;28;20242;-69
2022/06/18 10:07:27;;;;;;;7.10;2.42;;;24.70;71.10;;;;;;5011422;28;20234;-68
2022/06/18 10:10:00;;;;;;;6.95;1.95;;;24.80;71.80;;;;;;5011423;28;20200;-68
2022/06/18 10:12:45;;;;;;;6.82;2.40;;;24.80;71.10;;;;;;4994428;28;20192;-69
2022/06/18 10:15:15;;;;;;;7.18;2.55;;;24.80;71.20;;;;;;5012516;28;20198;-68
2022/06/18 10:18:02;;;;;;;3.78;2.30;;;24.80;72.10;;;;;;5012177;28;20590;-67
2022/06/18 10:20:59;;;;;;;6.28;2.00;;;24.80;72.30;;;;;;4995227;28;20211;-67
2022/06/18 10:24:04;;;;;;;4.80;1.90;;;24.80;73.90;;;;;;4994796;28;20648;-67
2022/06/18 10:26:48;;;;;;;2.88;1.92;;;24.80;74.00;;;;;;5027408;28;20187;-67
2022/06/18 10:29:26;;;;;;;5.50;1.77;;;24.80;73.70;;;;;;4994894;28;20200;-67
2022/06/18 10:32:25;;;;;;;5.07;2.17;;;24.90;73.70;;;;;;4992274;28;20205;-68
2022/06/18 10:35:25;;;;;;;9.55;2.58;;;24.90;74.80;;;;;;4999503;28;20192;-69
2022/06/18 10:37:50;;;;;;;6.00;2.20;;;24.90;74.50;;;;;;4991876;28;20173;-68
2022/06/18 10:40:40;;;;;;;3.70;1.85;;;24.90;74.20;;;;;;4991190;28;20259;-68
2022/06/18 10:43:30;;;;;;;5.00;2.33;;;24.90;74.20;;;;;;4991178;28;20177;-67
2022/06/18 10:46:09;;;;;;;4.43;2.88;;;24.90;74.50;;;;;;4991461;28;20564;-67
2022/06/18 10:48:36;;;;;;;4.65;2.15;;;24.90;75.70;;;;;;4991704;28;20219;-67
2022/06/18 10:51:03;;;;;;;3.67;2.33;;;24.90;76.00;;;;;;4991798;28;20316;-67
2022/06/18 10:53:46;;;;;;;2.53;2.08;;;24.90;75.40;;;;;;4992181;28;20189;-67
2022/06/18 10:56:26;;;;;;;4.10;2.10;;;24.90;75.90;;;;;;4991090;28;20209;-68
2022/06/18 10:59:03;;;;;;;4.93;2.60;;;25.00;76.10;;;;;;4991586;28;20205;-68
2022/06/18 11:01:38;;;;;;;2.85;2.20;;;25.00;76.30;;;;;;4991027;28;20169;-67
2022/06/18 11:04:25;;;;;;;3.65;2.60;;;25.00;76.40;;;;;;4991909;28;20238;-67
2022/06/18 11:07:02;;;;;;;5.25;2.40;;;24.90;75.00;;;;;;4993997;28;20169;-68
2022/06/18 11:09:45;;;;;;;5.70;2.38;;;25.00;75.20;;;;;;4978698;28;20204;-68
2022/06/18 11:12:52;;;;;;;2.35;2.10;;;25.00;76.30;;;;;;4994353;28;20185;-67
2022/06/18 11:15:29;;;;;;;6.35;2.58;;;25.00;77.20;;;;;;4985135;28;20282;-67
2022/06/18 11:17:55;;;;;;;2.80;2.35;;;24.90;76.00;;;;;;4994769;28;20169;-68
2022/06/18 11:20:29;;;;;;;4.57;2.00;;;25.00;75.10;;;;;;4995018;28;20211;-67
2022/06/18 11:22:59;;;;;;;2.47;1.95;;;24.90;75.30;;;;;;4994358;28;20185;-69
2022/06/18 11:25:40;;;;;;;6.47;2.40;;;24.90;74.60;;;;;;4994652;28;20193;-67
2022/06/18 11:28:39;;;;;;;2.38;2.10;;;25.00;76.80;;;;;;4995053;28;20276;-68
2022/06/18 11:31:08;;;;;;;4.70;2.30;;;25.00;76.20;;;;;;4994931;28;20271;-68
2022/06/18 11:33:42;;;;;;;3.38;2.33;;;24.90;76.00;;;;;;5003034;28;20640;-68
2022/06/18 11:36:13;;;;;;;5.57;2.72;;;24.90;75.50;;;;;;5014059;28;20371;-68
2022/06/18 11:38:54;;;;;;;2.60;2.28;;;24.90;75.00;;;;;;5014503;28;20283;-69
2022/06/18 11:41:40;;;;;;;2.72;2.30;;;24.80;74.70;;;;;;4997672;28;20223;-71
2022/06/18 11:44:23;;;;;;;3.88;2.38;;;24.90;74.70;;;;;;5015521;28;20160;-68
2022/06/18 11:47:03;;;;;;;6.03;2.28;;;24.80;74.10;;;;;;4996892;28;20192;-67
2022/06/18 11:50:04;;;;;;;3.50;2.30;;;24.80;73.50;;;;;;5015077;28;20227;-68
2022/06/18 11:52:51;;;;;;;3.00;2.55;;;24.80;73.90;;;;;;5011125;28;20206;-68
2022/06/18 11:55:32;;;;;;;3.67;2.38;;;24.80;74.10;;;;;;5013919;28;20219;-68
2022/06/18 11:58:18;;;;;;;3.85;2.67;;;24.80;73.30;;;;;;4997812;28;20624;-68
2022/06/18 12:01:04;;;;;;;2.35;2.15;;;24.80;72.10;;;;;;5029867;28;20212;-68
2022/06/18 12:03:59;;;;;;;2.05;1.92;;;24.80;72.10;;;;;;4981769;28;20299;-68
2022/06/18 12:06:42;;;;;;;2.83;2.30;;;24.80;72.40;;;;;;5014811;28;20207;-68
2022/06/18 12:09:13;;;;;;;2.10;1.90;;;24.80;72.90;;;;;;5013486;28;20208;-68
2022/06/18 12:11:50;;;;;;;2.75;2.20;;;24.80;72.10;;;;;;4996570;28;20180;-67
2022/06/18 12:14:57;;;;;;;2.53;2.08;;;24.80;72.10;;;;;;5014652;28;20164;-68
2022/06/18 12:17:47;;;;;;;2.40;2.15;;;24.80;71.40;;;;;;5012660;28;20180;-68
2022/06/18 12:20:52;;;;;;;3.03;2.08;;;24.80;71.60;;;;;;5014429;28;20192;-68
2022/06/18 12:23:31;;;;;;;2.70;2.17;;;24.80;71.60;;;;;;5029225;28;20187;-68
2022/06/18 12:26:32;;;;;;;4.63;2.38;;;24.80;70.60;;;;;;5014535;28;20219;-68
2022/06/18 12:29:32;;;;;;;2.97;2.22;;;24.80;70.70;;;;;;5014390;28;20207;-68
2022/06/18 12:33:03;;;;;;;3.05;1.90;;;24.80;70.60;;;;;;5006239;28;20766;-69
2022/06/18 12:35:52;;;;;;;2.85;2.13;;;24.80;70.90;;;;;;4946479;28;20232;-69
2022/06/18 12:38:42;;;;;;;3.90;2.20;;;24.90;70.20;;;;;;4975155;28;20182;-67
2022/06/18 12:41:39;;;;;;;4.78;2.22;;;24.90;71.00;;;;;;4973856;28;20205;-69
2022/06/18 12:44:39;;;;;;;7.22;2.33;;;25.00;71.70;;;;;;4974037;28;20173;-68
2022/06/18 12:47:14;;;;;;;5.15;2.53;;;24.90;71.10;;;;;;4973868;28;20193;-68
2022/06/18 12:49:58;;;;;;;6.00;2.40;;;25.00;71.10;;;;;;4973872;28;20217;-68
2022/06/18 12:52:43;;;;;;;5.13;2.33;;;25.00;71.60;;;;;;4957463;28;20193;-68
2022/06/18 12:55:38;;;;;;;3.60;2.35;;;24.90;72.10;;;;;;4974208;28;20239;-67
2022/06/18 12:58:35;;;;;;;6.10;2.20;;;25.00;72.20;;;;;;4974906;28;20217;-68
2022/06/18 13:01:16;;;;;;;3.15;2.38;;;25.00;71.90;;;;;;4975992;28;20189;-68
2022/06/18 13:03:59;;;;;;;3.47;2.58;;;25.00;72.30;;;;;;5002127;28;20179;-68
2022/06/18 13:06:43;;;;;;;7.55;2.38;;;25.00;73.90;;;;;;5012460;28;20192;-68
2022/06/18 13:09:42;;;;;;;5.72;2.72;;;25.00;73.00;;;;;;5013635;28;20208;-69
2022/06/18 13:12:34;;;;;;;7.95;2.75;;;25.00;73.20;;;;;;5012897;28;20180;-68
2022/06/18 13:15:33;;;;;;;6.10;2.45;;;25.10;72.70;;;;;;5012676;28;20289;-69
2022/06/18 13:18:32;;;;;;;3.42;2.50;;;25.10;73.10;;;;;;5000483;28;20239;-69
2022/06/18 13:21:02;;;;;;;4.75;2.40;;;25.00;72.90;;;;;;5011782;28;20184;-69
2022/06/18 13:29:22;;;;;;;6.28;2.67;;;24.90;72.20;;;;;;5011476;28;20200;-69
2022/06/18 13:32:08;;;;;;;7.55;2.35;;;24.90;71.70;;;;;;5012956;28;20232;-69
2022/06/18 13:34:57;;;;;;;5.57;2.40;;;24.90;71.50;;;;;;4996498;28;20193;-69
2022/06/18 13:37:41;;;;;;;3.40;2.50;;;24.90;72.30;;;;;;4973277;28;20184;-68
2022/06/18 13:40:34;;;;;;;4.70;2.42;;;24.90;72.40;;;;;;5006468;28;20201;-69
2022/06/18 13:43:31;;;;;;;4.32;2.40;;;24.90;71.50;;;;;;4969604;28;20184;-70
2022/06/18 13:46:32;;;;;;;3.08;2.25;;;24.90;71.50;;;;;;5004322;28;20191;-69
2022/06/18 13:49:25;;;;;;;4.03;2.20;;;24.80;71.00;;;;;;5019630;28;20219;-69
2022/06/18 13:52:01;;;;;;;3.67;2.25;;;24.90;71.80;;;;;;5000983;28;20284;-69
2022/06/18 13:54:50;;;;;;;3.95;2.13;;;24.90;71.40;;;;;;4988684;28;20197;-68
2022/06/18 13:57:21;;;;;;;5.78;2.63;;;24.80;71.00;;;;;;4993866;28;20224;-69